sensor_id;sensor_type;location;lat;lon;timestamp;P1;durP1;ratioP1;P2;durP2;ratioP2
9997;SDS011;5038;53.064;8.624;2022-11-20T00:00:56;21.23;;;19.23;;
9997;SDS011;5038;53.064;8.624;2022-11-20T00:03:24;21.40;;;19.27;;
9997;SDS011;5038;53.064;8.624;2022-11-20T00:05:54;22.07;;;18.97;;
9997;SDS011;5038;53.064;8.624;2022-11-20T00:08:26;20.77;;;18.57;;
9997;SDS011;5038;53.064;8.624;2022-11-20T00:10:54;22.20;;;18.97;;
9997;SDS011;5038;53.064;8.624;2022-11-20T00:13:22;19.17;;;17.00;;
9997;SDS011;5038;53.064;8.624;2022-11-20T00:15:56;19.83;;;17.73;;
9997;SDS011;5038;53.064;8.624;2022-11-20T00:18:25;20.70;;;18.50;;
9997;SDS011;5038;53.064;8.624;2022-11-20T00:20:59;21.50;;;19.23;;
9997;SDS011;5038;53.064;8.624;2022-11-20T00:23:28;21.43;;;17.10;;
9997;SDS011;5038;53.064;8.624;2022-11-20T00:26:00;25.77;;;21.27;;
9997;SDS011;5038;53.064;8.624;2022-11-20T00:28:29;20.87;;;18.67;;
9997;SDS011;5038;53.064;8.624;2022-11-20T00:31:01;19.70;;;17.60;;
9997;SDS011;5038;53.064;8.624;2022-11-20T00:33:30;20.60;;;18.50;;
9997;SDS011;5038;53.064;8.624;2022-11-20T00:36:03;22.20;;;19.90;;
9997;SDS011;5038;53.064;8.624;2022-11-20T00:38:32;21.27;;;19.07;;
9997;SDS011;5038;53.064;8.624;2022-11-20T00:41:02;20.50;;;18.43;;
9997;SDS011;5038;53.064;8.624;2022-11-20T00:43:31;21.53;;;19.33;;
9997;SDS011;5038;53.064;8.624;2022-11-20T00:46:00;21.10;;;19.10;;
9997;SDS011;5038;53.064;8.624;2022-11-20T00:48:32;19.80;;;17.70;;
9997;SDS011;5038;53.064;8.624;2022-11-20T00:51:00;21.40;;;19.30;;
9997;SDS011;5038;53.064;8.624;2022-11-20T00:53:30;21.90;;;19.80;;
9997;SDS011;5038;53.064;8.624;2022-11-20T00:55:59;20.10;;;18.10;;
9997;SDS011;5038;53.064;8.624;2022-11-20T00:58:28;20.17;;;18.07;;
9997;SDS011;5038;53.064;8.624;2022-11-20T01:01:02;19.83;;;17.83;;
9997;SDS011;5038;53.064;8.624;2022-11-20T01:03:32;20.17;;;18.13;;
9997;SDS011;5038;53.064;8.624;2022-11-20T01:06:00;20.37;;;18.37;;
9997;SDS011;5038;53.064;8.624;2022-11-20T01:08:31;19.10;;;17.30;;
9997;SDS011;5038;53.064;8.624;2022-11-20T01:11:00;20.50;;;17.50;;
9997;SDS011;5038;53.064;8.624;2022-11-20T01:13:29;21.50;;;19.30;;
9997;SDS011;5038;53.064;8.624;2022-11-20T01:16:05;20.83;;;18.63;;
9997;SDS011;5038;53.064;8.624;2022-11-20T01:18:35;22.17;;;19.90;;
9997;SDS011;5038;53.064;8.624;2022-11-20T01:21:06;20.03;;;17.80;;
9997;SDS011;5038;53.064;8.624;2022-11-20T01:23:37;21.03;;;18.93;;
9997;SDS011;5038;53.064;8.624;2022-11-20T01:26:06;22.07;;;19.70;;
9997;SDS011;5038;53.064;8.624;2022-11-20T01:28:37;21.60;;;19.33;;
9997;SDS011;5038;53.064;8.624;2022-11-20T01:31:10;21.67;;;19.37;;
9997;SDS011;5038;53.064;8.624;2022-11-20T01:33:39;22.77;;;20.50;;
9997;SDS011;5038;53.064;8.624;2022-11-20T01:36:10;21.83;;;18.17;;
9997;SDS011;5038;53.064;8.624;2022-11-20T01:38:39;20.97;;;18.77;;
9997;SDS011;5038;53.064;8.624;2022-11-20T01:41:08;20.17;;;17.87;;
9997;SDS011;5038;53.064;8.624;2022-11-20T01:43:37;19.57;;;17.07;;
9997;SDS011;5038;53.064;8.624;2022-11-20T01:46:05;19.33;;;17.33;;
9997;SDS011;5038;53.064;8.624;2022-11-20T01:48:43;20.53;;;16.73;;
9997;SDS011;5038;53.064;8.624;2022-11-20T01:51:21;21.27;;;19.17;;
9997;SDS011;5038;53.064;8.624;2022-11-20T01:53:54;20.30;;;18.00;;
9997;SDS011;5038;53.064;8.624;2022-11-20T01:56:25;20.70;;;18.63;;
9997;SDS011;5038;53.064;8.624;2022-11-20T01:58:56;20.77;;;18.57;;
9997;SDS011;5038;53.064;8.624;2022-11-20T02:01:28;19.70;;;17.70;;
9997;SDS011;5038;53.064;8.624;2022-11-20T02:03:56;20.33;;;18.50;;
9997;SDS011;5038;53.064;8.624;2022-11-20T02:06:27;20.90;;;18.80;;
9997;SDS011;5038;53.064;8.624;2022-11-20T02:08:58;20.83;;;18.27;;
9997;SDS011;5038;53.064;8.624;2022-11-20T02:11:26;21.33;;;19.23;;
9997;SDS011;5038;53.064;8.624;2022-11-20T02:13:55;22.33;;;20.00;;
9997;SDS011;5038;53.064;8.624;2022-11-20T02:16:23;23.30;;;20.90;;
9997;SDS011;5038;53.064;8.624;2022-11-20T02:18:53;27.97;;;24.47;;
9997;SDS011;5038;53.064;8.624;2022-11-20T02:21:29;31.10;;;25.90;;
9997;SDS011;5038;53.064;8.624;2022-11-20T02:24:04;29.47;;;26.07;;
9997;SDS011;5038;53.064;8.624;2022-11-20T02:26:37;28.03;;;25.03;;
9997;SDS011;5038;53.064;8.624;2022-11-20T02:29:08;30.43;;;26.90;;
9997;SDS011;5038;53.064;8.624;2022-11-20T02:31:37;29.60;;;26.37;;
9997;SDS011;5038;53.064;8.624;2022-11-20T02:34:08;29.60;;;24.90;;
9997;SDS011;5038;53.064;8.624;2022-11-20T02:36:37;33.60;;;26.87;;
9997;SDS011;5038;53.064;8.624;2022-11-20T02:39:10;28.70;;;22.23;;
9997;SDS011;5038;53.064;8.624;2022-11-20T02:41:43;27.33;;;24.17;;
9997;SDS011;5038;53.064;8.624;2022-11-20T02:44:11;31.57;;;24.33;;
9997;SDS011;5038;53.064;8.624;2022-11-20T02:46:39;29.40;;;25.10;;
9997;SDS011;5038;53.064;8.624;2022-11-20T02:49:08;25.80;;;23.23;;
9997;SDS011;5038;53.064;8.624;2022-11-20T02:51:36;25.13;;;21.53;;
9997;SDS011;5038;53.064;8.624;2022-11-20T02:54:04;27.23;;;21.80;;
9997;SDS011;5038;53.064;8.624;2022-11-20T02:56:33;24.00;;;20.50;;
9997;SDS011;5038;53.064;8.624;2022-11-20T02:59:01;26.40;;;21.20;;
9997;SDS011;5038;53.064;8.624;2022-11-20T03:01:30;24.90;;;20.00;;
9997;SDS011;5038;53.064;8.624;2022-11-20T03:03:59;17.43;;;15.53;;
9997;SDS011;5038;53.064;8.624;2022-11-20T03:06:27;21.27;;;17.60;;
9997;SDS011;5038;53.064;8.624;2022-11-20T03:08:55;19.70;;;16.87;;
9997;SDS011;5038;53.064;8.624;2022-11-20T03:11:23;19.80;;;17.50;;
9997;SDS011;5038;53.064;8.624;2022-11-20T03:13:52;19.00;;;15.43;;
9997;SDS011;5038;53.064;8.624;2022-11-20T03:16:21;17.30;;;15.50;;
9997;SDS011;5038;53.064;8.624;2022-11-20T03:18:51;18.03;;;16.07;;
9997;SDS011;5038;53.064;8.624;2022-11-20T03:21:19;18.17;;;15.70;;
9997;SDS011;5038;53.064;8.624;2022-11-20T03:23:47;18.17;;;14.30;;
9997;SDS011;5038;53.064;8.624;2022-11-20T03:26:16;20.93;;;16.60;;
9997;SDS011;5038;53.064;8.624;2022-11-20T03:28:48;17.07;;;15.13;;
9997;SDS011;5038;53.064;8.624;2022-11-20T03:31:20;15.93;;;13.70;;
9997;SDS011;5038;53.064;8.624;2022-11-20T03:33:49;17.10;;;14.67;;
9997;SDS011;5038;53.064;8.624;2022-11-20T03:36:18;15.00;;;12.30;;
9997;SDS011;5038;53.064;8.624;2022-11-20T03:38:47;17.30;;;15.40;;
9997;SDS011;5038;53.064;8.624;2022-11-20T03:41:17;14.00;;;12.50;;
9997;SDS011;5038;53.064;8.624;2022-11-20T03:43:47;14.30;;;12.80;;
9997;SDS011;5038;53.064;8.624;2022-11-20T03:46:15;15.13;;;13.60;;
9997;SDS011;5038;53.064;8.624;2022-11-20T03:48:45;14.40;;;12.20;;
9997;SDS011;5038;53.064;8.624;2022-11-20T03:51:18;13.20;;;11.90;;
9997;SDS011;5038;53.064;8.624;2022-11-20T03:53:48;14.80;;;12.50;;
9997;SDS011;5038;53.064;8.624;2022-11-20T03:56:18;16.60;;;13.47;;
9997;SDS011;5038;53.064;8.624;2022-11-20T03:58:48;15.10;;;12.37;;
9997;SDS011;5038;53.064;8.624;2022-11-20T04:01:16;13.30;;;11.93;;
9997;SDS011;5038;53.064;8.624;2022-11-20T04:03:47;13.17;;;11.80;;
9997;SDS011;5038;53.064;8.624;2022-11-20T04:06:16;14.50;;;12.50;;
9997;SDS011;5038;53.064;8.624;2022-11-20T04:08:45;13.67;;;12.37;;
9997;SDS011;5038;53.064;8.624;2022-11-20T04:11:19;14.83;;;12.87;;
9997;SDS011;5038;53.064;8.624;2022-11-20T04:13:51;14.87;;;12.50;;
9997;SDS011;5038;53.064;8.624;2022-11-20T04:16:44;13.90;;;12.43;;
9997;SDS011;5038;53.064;8.624;2022-11-20T04:19:14;15.50;;;11.83;;
9997;SDS011;5038;53.064;8.624;2022-11-20T04:21:43;14.97;;;13.13;;
9997;SDS011;5038;53.064;8.624;2022-11-20T04:24:11;18.07;;;14.83;;
9997;SDS011;5038;53.064;8.624;2022-11-20T04:26:39;15.73;;;14.13;;
9997;SDS011;5038;53.064;8.624;2022-11-20T04:29:09;14.00;;;12.60;;
9997;SDS011;5038;53.064;8.624;2022-11-20T04:31:38;14.00;;;12.50;;
9997;SDS011;5038;53.064;8.624;2022-11-20T04:34:06;14.77;;;13.20;;
9997;SDS011;5038;53.064;8.624;2022-11-20T04:36:36;12.97;;;11.60;;
9997;SDS011;5038;53.064;8.624;2022-11-20T04:39:05;11.70;;;9.30;;
9997;SDS011;5038;53.064;8.624;2022-11-20T04:41:34;12.90;;;11.50;;
9997;SDS011;5038;53.064;8.624;2022-11-20T04:44:04;14.53;;;10.90;;
9997;SDS011;5038;53.064;8.624;2022-11-20T04:46:34;13.27;;;11.63;;
9997;SDS011;5038;53.064;8.624;2022-11-20T04:49:03;13.23;;;11.93;;
9997;SDS011;5038;53.064;8.624;2022-11-20T04:51:32;12.80;;;10.97;;
9997;SDS011;5038;53.064;8.624;2022-11-20T04:54:01;12.67;;;11.37;;
9997;SDS011;5038;53.064;8.624;2022-11-20T04:56:30;13.30;;;11.90;;
9997;SDS011;5038;53.064;8.624;2022-11-20T04:58:59;13.37;;;11.93;;
9997;SDS011;5038;53.064;8.624;2022-11-20T05:01:28;12.57;;;11.17;;
9997;SDS011;5038;53.064;8.624;2022-11-20T05:03:56;12.50;;;11.00;;
9997;SDS011;5038;53.064;8.624;2022-11-20T05:06:24;11.30;;;10.20;;
9997;SDS011;5038;53.064;8.624;2022-11-20T05:08:52;12.63;;;11.27;;
9997;SDS011;5038;53.064;8.624;2022-11-20T05:11:22;12.40;;;11.10;;
9997;SDS011;5038;53.064;8.624;2022-11-20T05:13:51;12.93;;;11.63;;
9997;SDS011;5038;53.064;8.624;2022-11-20T05:16:20;12.37;;;11.17;;
9997;SDS011;5038;53.064;8.624;2022-11-20T05:18:50;12.03;;;10.83;;
9997;SDS011;5038;53.064;8.624;2022-11-20T05:21:19;12.40;;;11.17;;
9997;SDS011;5038;53.064;8.624;2022-11-20T05:23:47;12.03;;;10.67;;
9997;SDS011;5038;53.064;8.624;2022-11-20T05:26:17;12.37;;;11.17;;
9997;SDS011;5038;53.064;8.624;2022-11-20T05:28:49;11.73;;;10.53;;
9997;SDS011;5038;53.064;8.624;2022-11-20T05:31:17;12.30;;;11.10;;
9997;SDS011;5038;53.064;8.624;2022-11-20T05:33:52;12.83;;;11.53;;
9997;SDS011;5038;53.064;8.624;2022-11-20T05:36:21;13.33;;;11.87;;
9997;SDS011;5038;53.064;8.624;2022-11-20T05:38:49;9.77;;;8.77;;
9997;SDS011;5038;53.064;8.624;2022-11-20T05:41:25;13.53;;;12.00;;
9997;SDS011;5038;53.064;8.624;2022-11-20T05:43:55;12.57;;;11.27;;
9997;SDS011;5038;53.064;8.624;2022-11-20T05:46:24;13.47;;;12.27;;
9997;SDS011;5038;53.064;8.624;2022-11-20T05:48:54;12.90;;;11.50;;
9997;SDS011;5038;53.064;8.624;2022-11-20T05:51:24;13.17;;;11.50;;
9997;SDS011;5038;53.064;8.624;2022-11-20T05:53:53;13.87;;;12.17;;
9997;SDS011;5038;53.064;8.624;2022-11-20T05:56:21;13.63;;;12.13;;
9997;SDS011;5038;53.064;8.624;2022-11-20T05:58:49;14.10;;;12.60;;
9997;SDS011;5038;53.064;8.624;2022-11-20T06:01:20;12.90;;;11.60;;
9997;SDS011;5038;53.064;8.624;2022-11-20T06:03:49;12.90;;;11.60;;
9997;SDS011;5038;53.064;8.624;2022-11-20T06:06:17;14.50;;;13.00;;
9997;SDS011;5038;53.064;8.624;2022-11-20T06:08:46;14.07;;;12.67;;
9997;SDS011;5038;53.064;8.624;2022-11-20T06:11:15;15.27;;;13.67;;
9997;SDS011;5038;53.064;8.624;2022-11-20T06:13:44;14.20;;;12.80;;
9997;SDS011;5038;53.064;8.624;2022-11-20T06:16:13;16.93;;;13.13;;
9997;SDS011;5038;53.064;8.624;2022-11-20T06:18:44;13.40;;;12.07;;
9997;SDS011;5038;53.064;8.624;2022-11-20T06:21:14;14.10;;;12.60;;
9997;SDS011;5038;53.064;8.624;2022-11-20T06:23:43;12.50;;;11.20;;
9997;SDS011;5038;53.064;8.624;2022-11-20T06:26:14;15.70;;;14.00;;
9997;SDS011;5038;53.064;8.624;2022-11-20T06:28:43;15.23;;;13.73;;
9997;SDS011;5038;53.064;8.624;2022-11-20T06:31:12;13.70;;;12.30;;
9997;SDS011;5038;53.064;8.624;2022-11-20T06:33:43;16.17;;;14.57;;
9997;SDS011;5038;53.064;8.624;2022-11-20T06:36:12;14.80;;;13.30;;
9997;SDS011;5038;53.064;8.624;2022-11-20T06:38:42;14.73;;;13.13;;
9997;SDS011;5038;53.064;8.624;2022-11-20T06:41:11;14.23;;;12.73;;
9997;SDS011;5038;53.064;8.624;2022-11-20T06:43:42;15.47;;;13.87;;
9997;SDS011;5038;53.064;8.624;2022-11-20T06:46:10;18.27;;;14.80;;
9997;SDS011;5038;53.064;8.624;2022-11-20T06:48:39;18.03;;;16.13;;
9997;SDS011;5038;53.064;8.624;2022-11-20T06:51:09;14.93;;;13.37;;
9997;SDS011;5038;53.064;8.624;2022-11-20T06:53:37;15.47;;;13.77;;
9997;SDS011;5038;53.064;8.624;2022-11-20T06:56:06;14.80;;;13.30;;
9997;SDS011;5038;53.064;8.624;2022-11-20T06:58:34;15.70;;;13.93;;
9997;SDS011;5038;53.064;8.624;2022-11-20T07:01:03;20.40;;;17.50;;
9997;SDS011;5038;53.064;8.624;2022-11-20T07:03:33;17.90;;;16.10;;
9997;SDS011;5038;53.064;8.624;2022-11-20T07:06:01;17.37;;;15.67;;
9997;SDS011;5038;53.064;8.624;2022-11-20T07:08:31;17.27;;;15.57;;
9997;SDS011;5038;53.064;8.624;2022-11-20T07:11:00;17.83;;;16.03;;
9997;SDS011;5038;53.064;8.624;2022-11-20T07:13:29;17.03;;;15.23;;
9997;SDS011;5038;53.064;8.624;2022-11-20T07:15:58;17.13;;;15.43;;
9997;SDS011;5038;53.064;8.624;2022-11-20T07:18:27;17.73;;;15.90;;
9997;SDS011;5038;53.064;8.624;2022-11-20T07:20:55;17.03;;;14.80;;
9997;SDS011;5038;53.064;8.624;2022-11-20T07:23:23;17.23;;;14.13;;
9997;SDS011;5038;53.064;8.624;2022-11-20T07:25:52;16.27;;;14.57;;
9997;SDS011;5038;53.064;8.624;2022-11-20T07:28:20;15.73;;;14.20;;
9997;SDS011;5038;53.064;8.624;2022-11-20T07:30:50;17.53;;;15.77;;
9997;SDS011;5038;53.064;8.624;2022-11-20T07:33:18;16.73;;;14.63;;
9997;SDS011;5038;53.064;8.624;2022-11-20T07:35:47;16.23;;;14.53;;
9997;SDS011;5038;53.064;8.624;2022-11-20T07:38:18;16.73;;;14.93;;
9997;SDS011;5038;53.064;8.624;2022-11-20T07:40:46;15.90;;;14.30;;
9997;SDS011;5038;53.064;8.624;2022-11-20T07:43:16;16.70;;;14.33;;
9997;SDS011;5038;53.064;8.624;2022-11-20T07:45:44;17.73;;;16.00;;
9997;SDS011;5038;53.064;8.624;2022-11-20T07:48:12;17.90;;;16.00;;
9997;SDS011;5038;53.064;8.624;2022-11-20T07:50:40;17.57;;;15.77;;
9997;SDS011;5038;53.064;8.624;2022-11-20T07:53:08;17.53;;;15.83;;
9997;SDS011;5038;53.064;8.624;2022-11-20T07:55:36;16.73;;;15.03;;
9997;SDS011;5038;53.064;8.624;2022-11-20T07:58:04;17.40;;;15.63;;
9997;SDS011;5038;53.064;8.624;2022-11-20T08:00:34;18.23;;;16.37;;
9997;SDS011;5038;53.064;8.624;2022-11-20T08:03:03;17.27;;;15.57;;
9997;SDS011;5038;53.064;8.624;2022-11-20T08:05:31;15.80;;;14.20;;
9997;SDS011;5038;53.064;8.624;2022-11-20T08:08:00;15.67;;;14.17;;
9997;SDS011;5038;53.064;8.624;2022-11-20T08:10:28;17.43;;;15.77;;
9997;SDS011;5038;53.064;8.624;2022-11-20T08:12:56;16.87;;;15.27;;
9997;SDS011;5038;53.064;8.624;2022-11-20T08:15:46;18.80;;;16.90;;
9997;SDS011;5038;53.064;8.624;2022-11-20T08:18:16;17.07;;;15.30;;
9997;SDS011;5038;53.064;8.624;2022-11-20T08:21:01;18.40;;;16.60;;
9997;SDS011;5038;53.064;8.624;2022-11-20T08:23:30;16.83;;;14.90;;
9997;SDS011;5038;53.064;8.624;2022-11-20T08:25:58;16.87;;;15.10;;
9997;SDS011;5038;53.064;8.624;2022-11-20T08:28:27;15.70;;;14.13;;
9997;SDS011;5038;53.064;8.624;2022-11-20T08:30:58;13.53;;;12.23;;
9997;SDS011;5038;53.064;8.624;2022-11-20T08:33:27;16.80;;;15.20;;
9997;SDS011;5038;53.064;8.624;2022-11-20T08:35:58;16.10;;;14.47;;
9997;SDS011;5038;53.064;8.624;2022-11-20T08:38:27;17.03;;;15.20;;
9997;SDS011;5038;53.064;8.624;2022-11-20T08:40:58;16.43;;;14.80;;
9997;SDS011;5038;53.064;8.624;2022-11-20T08:43:44;17.97;;;15.20;;
9997;SDS011;5038;53.064;8.624;2022-11-20T08:46:14;17.57;;;15.77;;
9997;SDS011;5038;53.064;8.624;2022-11-20T08:48:42;17.07;;;15.37;;
9997;SDS011;5038;53.064;8.624;2022-11-20T08:51:11;17.03;;;14.40;;
9997;SDS011;5038;53.064;8.624;2022-11-20T08:53:39;18.10;;;15.10;;
9997;SDS011;5038;53.064;8.624;2022-11-20T08:56:07;15.93;;;14.33;;
9997;SDS011;5038;53.064;8.624;2022-11-20T08:58:37;16.27;;;14.63;;
9997;SDS011;5038;53.064;8.624;2022-11-20T09:01:27;17.43;;;14.23;;
9997;SDS011;5038;53.064;8.624;2022-11-20T09:03:56;16.17;;;14.60;;
9997;SDS011;5038;53.064;8.624;2022-11-20T09:06:25;16.40;;;14.80;;
9997;SDS011;5038;53.064;8.624;2022-11-20T09:08:53;16.20;;;14.30;;
9997;SDS011;5038;53.064;8.624;2022-11-20T09:11:27;17.00;;;14.90;;
9997;SDS011;5038;53.064;8.624;2022-11-20T09:13:55;15.53;;;14.03;;
9997;SDS011;5038;53.064;8.624;2022-11-20T09:16:23;17.07;;;15.40;;
9997;SDS011;5038;53.064;8.624;2022-11-20T09:18:52;16.93;;;14.93;;
9997;SDS011;5038;53.064;8.624;2022-11-20T09:21:40;15.30;;;13.80;;
9997;SDS011;5038;53.064;8.624;2022-11-20T09:24:10;19.67;;;15.90;;
9997;SDS011;5038;53.064;8.624;2022-11-20T09:26:49;16.87;;;15.17;;
9997;SDS011;5038;53.064;8.624;2022-11-20T09:29:17;17.60;;;15.90;;
9997;SDS011;5038;53.064;8.624;2022-11-20T09:31:46;16.87;;;15.07;;
9997;SDS011;5038;53.064;8.624;2022-11-20T09:34:15;18.67;;;16.77;;
9997;SDS011;5038;53.064;8.624;2022-11-20T09:36:43;20.77;;;17.73;;
9997;SDS011;5038;53.064;8.624;2022-11-20T09:39:12;18.03;;;16.20;;
9997;SDS011;5038;53.064;8.624;2022-11-20T09:41:45;19.20;;;17.27;;
9997;SDS011;5038;53.064;8.624;2022-11-20T09:44:37;17.50;;;15.70;;
9997;SDS011;5038;53.064;8.624;2022-11-20T09:47:22;18.20;;;16.40;;
9997;SDS011;5038;53.064;8.624;2022-11-20T09:50:04;18.50;;;16.70;;
9997;SDS011;5038;53.064;8.624;2022-11-20T09:52:49;18.70;;;16.90;;
9997;SDS011;5038;53.064;8.624;2022-11-20T09:55:25;17.13;;;15.53;;
9997;SDS011;5038;53.064;8.624;2022-11-20T09:57:56;17.83;;;16.20;;
9997;SDS011;5038;53.064;8.624;2022-11-20T10:00:26;17.37;;;15.67;;
9997;SDS011;5038;53.064;8.624;2022-11-20T10:02:58;17.10;;;15.40;;
9997;SDS011;5038;53.064;8.624;2022-11-20T10:05:31;18.00;;;16.20;;
9997;SDS011;5038;53.064;8.624;2022-11-20T10:08:08;19.27;;;17.20;;
9997;SDS011;5038;53.064;8.624;2022-11-20T10:10:43;17.47;;;15.70;;
9997;SDS011;5038;53.064;8.624;2022-11-20T10:13:27;18.10;;;15.53;;
9997;SDS011;5038;53.064;8.624;2022-11-20T10:16:08;17.03;;;15.43;;
9997;SDS011;5038;53.064;8.624;2022-11-20T10:18:49;16.53;;;14.83;;
9997;SDS011;5038;53.064;8.624;2022-11-20T10:21:30;17.77;;;15.83;;
9997;SDS011;5038;53.064;8.624;2022-11-20T10:24:14;16.73;;;14.33;;
9997;SDS011;5038;53.064;8.624;2022-11-20T10:27:08;16.87;;;15.10;;
9997;SDS011;5038;53.064;8.624;2022-11-20T10:29:51;15.43;;;13.90;;
9997;SDS011;5038;53.064;8.624;2022-11-20T10:32:30;15.90;;;14.30;;
9997;SDS011;5038;53.064;8.624;2022-11-20T10:35:05;16.90;;;15.20;;
9997;SDS011;5038;53.064;8.624;2022-11-20T10:37:44;17.67;;;15.90;;
9997;SDS011;5038;53.064;8.624;2022-11-20T10:40:18;18.10;;;16.20;;
9997;SDS011;5038;53.064;8.624;2022-11-20T10:42:55;16.70;;;14.80;;
9997;SDS011;5038;53.064;8.624;2022-11-20T10:45:36;15.90;;;14.20;;
9997;SDS011;5038;53.064;8.624;2022-11-20T10:48:15;16.50;;;14.90;;
9997;SDS011;5038;53.064;8.624;2022-11-20T10:50:48;17.73;;;15.80;;
9997;SDS011;5038;53.064;8.624;2022-11-20T10:53:31;15.73;;;14.03;;
9997;SDS011;5038;53.064;8.624;2022-11-20T10:56:09;15.33;;;13.83;;
9997;SDS011;5038;53.064;8.624;2022-11-20T10:58:48;15.20;;;13.23;;
9997;SDS011;5038;53.064;8.624;2022-11-20T11:01:39;13.50;;;12.20;;
9997;SDS011;5038;53.064;8.624;2022-11-20T11:04:15;14.30;;;12.90;;
9997;SDS011;5038;53.064;8.624;2022-11-20T11:06:54;13.63;;;12.23;;
9997;SDS011;5038;53.064;8.624;2022-11-20T11:09:29;13.00;;;11.70;;
9997;SDS011;5038;53.064;8.624;2022-11-20T11:12:00;15.93;;;13.27;;
9997;SDS011;5038;53.064;8.624;2022-11-20T11:14:41;13.90;;;12.50;;
9997;SDS011;5038;53.064;8.624;2022-11-20T11:17:18;14.13;;;12.70;;
9997;SDS011;5038;53.064;8.624;2022-11-20T11:19:59;12.67;;;11.37;;
9997;SDS011;5038;53.064;8.624;2022-11-20T11:22:29;12.40;;;11.20;;
9997;SDS011;5038;53.064;8.624;2022-11-20T11:25:00;11.90;;;10.70;;
9997;SDS011;5038;53.064;8.624;2022-11-20T11:27:29;13.77;;;12.27;;
9997;SDS011;5038;53.064;8.624;2022-11-20T11:30:11;14.00;;;12.70;;
9997;SDS011;5038;53.064;8.624;2022-11-20T11:32:41;12.63;;;11.33;;
9997;SDS011;5038;53.064;8.624;2022-11-20T11:35:19;11.73;;;10.40;;
9997;SDS011;5038;53.064;8.624;2022-11-20T11:37:50;11.13;;;10.03;;
9997;SDS011;5038;53.064;8.624;2022-11-20T11:40:22;10.97;;;9.90;;
9997;SDS011;5038;53.064;8.624;2022-11-20T11:42:54;11.47;;;10.37;;
9997;SDS011;5038;53.064;8.624;2022-11-20T11:45:25;11.03;;;9.93;;
9997;SDS011;5038;53.064;8.624;2022-11-20T11:47:53;12.60;;;11.40;;
9997;SDS011;5038;53.064;8.624;2022-11-20T11:50:24;12.37;;;11.17;;
9997;SDS011;5038;53.064;8.624;2022-11-20T11:52:55;15.33;;;13.83;;
9997;SDS011;5038;53.064;8.624;2022-11-20T11:55:31;15.03;;;13.47;;
9997;SDS011;5038;53.064;8.624;2022-11-20T11:58:09;17.33;;;15.53;;
9997;SDS011;5038;53.064;8.624;2022-11-20T12:00:46;16.80;;;15.20;;
9997;SDS011;5038;53.064;8.624;2022-11-20T12:03:19;16.07;;;14.47;;
9997;SDS011;5038;53.064;8.624;2022-11-20T12:05:55;17.27;;;15.60;;
9997;SDS011;5038;53.064;8.624;2022-11-20T12:08:27;15.80;;;14.30;;
9997;SDS011;5038;53.064;8.624;2022-11-20T12:11:03;12.83;;;11.60;;
9997;SDS011;5038;53.064;8.624;2022-11-20T12:13:44;15.17;;;13.57;;
9997;SDS011;5038;53.064;8.624;2022-11-20T12:16:17;15.20;;;13.70;;
9997;SDS011;5038;53.064;8.624;2022-11-20T12:18:48;15.00;;;13.70;;
9997;SDS011;5038;53.064;8.624;2022-11-20T12:21:19;15.90;;;14.40;;
9997;SDS011;5038;53.064;8.624;2022-11-20T12:23:56;16.27;;;14.73;;
9997;SDS011;5038;53.064;8.624;2022-11-20T12:26:45;18.53;;;16.73;;
9997;SDS011;5038;53.064;8.624;2022-11-20T12:29:27;18.93;;;17.03;;
9997;SDS011;5038;53.064;8.624;2022-11-20T12:35:10;16.67;;;15.07;;
9997;SDS011;5038;53.064;8.624;2022-11-20T12:37:53;17.73;;;16.03;;
9997;SDS011;5038;53.064;8.624;2022-11-20T12:40:35;16.40;;;14.90;;
9997;SDS011;5038;53.064;8.624;2022-11-20T12:43:14;18.97;;;17.27;;
9997;SDS011;5038;53.064;8.624;2022-11-20T12:46:08;17.90;;;16.00;;
9997;SDS011;5038;53.064;8.624;2022-11-20T12:48:49;18.73;;;16.83;;
9997;SDS011;5038;53.064;8.624;2022-11-20T12:51:29;17.87;;;16.17;;
9997;SDS011;5038;53.064;8.624;2022-11-20T12:57:16;19.07;;;16.40;;
9997;SDS011;5038;53.064;8.624;2022-11-20T12:59:53;18.30;;;16.60;;
9997;SDS011;5038;53.064;8.624;2022-11-20T13:02:33;18.27;;;16.47;;
9997;SDS011;5038;53.064;8.624;2022-11-20T13:05:16;16.17;;;14.57;;
9997;SDS011;5038;53.064;8.624;2022-11-20T13:07:47;16.10;;;14.60;;
9997;SDS011;5038;53.064;8.624;2022-11-20T13:10:18;18.77;;;17.00;;
9997;SDS011;5038;53.064;8.624;2022-11-20T13:12:55;18.93;;;17.13;;
9997;SDS011;5038;53.064;8.624;2022-11-20T13:15:37;18.97;;;17.27;;
9997;SDS011;5038;53.064;8.624;2022-11-20T13:18:13;20.33;;;18.30;;
9997;SDS011;5038;53.064;8.624;2022-11-20T13:20:43;20.70;;;18.70;;
9997;SDS011;5038;53.064;8.624;2022-11-20T13:23:22;20.10;;;18.17;;
9997;SDS011;5038;53.064;8.624;2022-11-20T13:26:05;20.63;;;18.73;;
9997;SDS011;5038;53.064;8.624;2022-11-20T13:28:41;18.77;;;17.10;;
9997;SDS011;5038;53.064;8.624;2022-11-20T13:31:21;18.20;;;16.50;;
9997;SDS011;5038;53.064;8.624;2022-11-20T13:33:58;18.47;;;16.77;;
9997;SDS011;5038;53.064;8.624;2022-11-20T13:36:29;20.87;;;18.90;;
9997;SDS011;5038;53.064;8.624;2022-11-20T13:38:59;21.17;;;19.17;;
9997;SDS011;5038;53.064;8.624;2022-11-20T13:41:28;14.73;;;13.23;;
9997;SDS011;5038;53.064;8.624;2022-11-20T13:44:10;12.20;;;11.10;;
9997;SDS011;5038;53.064;8.624;2022-11-20T13:46:43;11.87;;;10.73;;
9997;SDS011;5038;53.064;8.624;2022-11-20T13:49:16;12.17;;;10.97;;
9997;SDS011;5038;53.064;8.624;2022-11-20T13:51:56;12.87;;;11.40;;
9997;SDS011;5038;53.064;8.624;2022-11-20T13:54:49;12.73;;;11.47;;
9997;SDS011;5038;53.064;8.624;2022-11-20T13:57:35;12.47;;;11.00;;
9997;SDS011;5038;53.064;8.624;2022-11-20T14:00:17;14.20;;;12.87;;
9997;SDS011;5038;53.064;8.624;2022-11-20T14:02:51;15.73;;;14.27;;
9997;SDS011;5038;53.064;8.624;2022-11-20T14:05:28;15.33;;;13.73;;
9997;SDS011;5038;53.064;8.624;2022-11-20T14:08:02;15.20;;;13.70;;
9997;SDS011;5038;53.064;8.624;2022-11-20T14:10:31;14.70;;;12.97;;
9997;SDS011;5038;53.064;8.624;2022-11-20T14:13:09;14.80;;;13.20;;
9997;SDS011;5038;53.064;8.624;2022-11-20T14:15:38;15.60;;;14.00;;
9997;SDS011;5038;53.064;8.624;2022-11-20T14:18:13;14.30;;;12.90;;
9997;SDS011;5038;53.064;8.624;2022-11-20T14:20:42;14.87;;;13.23;;
9997;SDS011;5038;53.064;8.624;2022-11-20T14:23:11;14.93;;;13.63;;
9997;SDS011;5038;53.064;8.624;2022-11-20T14:25:41;15.57;;;14.07;;
9997;SDS011;5038;53.064;8.624;2022-11-20T14:28:18;16.03;;;14.23;;
9997;SDS011;5038;53.064;8.624;2022-11-20T14:30:51;15.13;;;13.63;;
9997;SDS011;5038;53.064;8.624;2022-11-20T14:33:22;19.53;;;17.30;;
9997;SDS011;5038;53.064;8.624;2022-11-20T14:35:52;17.30;;;15.50;;
9997;SDS011;5038;53.064;8.624;2022-11-20T14:38:24;15.13;;;13.73;;
9997;SDS011;5038;53.064;8.624;2022-11-20T14:40:54;15.47;;;14.00;;
9997;SDS011;5038;53.064;8.624;2022-11-20T14:43:33;14.77;;;13.23;;
9997;SDS011;5038;53.064;8.624;2022-11-20T14:46:04;16.53;;;15.03;;
9997;SDS011;5038;53.064;8.624;2022-11-20T14:48:37;20.47;;;18.53;;
9997;SDS011;5038;53.064;8.624;2022-11-20T14:51:08;18.63;;;16.90;;
9997;SDS011;5038;53.064;8.624;2022-11-20T14:53:37;18.47;;;16.77;;
9997;SDS011;5038;53.064;8.624;2022-11-20T14:56:06;17.00;;;15.27;;
9997;SDS011;5038;53.064;8.624;2022-11-20T14:58:36;16.50;;;14.80;;
9997;SDS011;5038;53.064;8.624;2022-11-20T15:01:05;17.33;;;15.70;;
9997;SDS011;5038;53.064;8.624;2022-11-20T15:03:35;17.17;;;15.50;;
9997;SDS011;5038;53.064;8.624;2022-11-20T15:06:06;17.70;;;15.90;;
9997;SDS011;5038;53.064;8.624;2022-11-20T15:08:37;27.83;;;23.40;;
9997;SDS011;5038;53.064;8.624;2022-11-20T15:11:14;38.27;;;33.20;;
9997;SDS011;5038;53.064;8.624;2022-11-20T15:13:45;24.83;;;22.20;;
9997;SDS011;5038;53.064;8.624;2022-11-20T15:16:15;18.93;;;17.13;;
9997;SDS011;5038;53.064;8.624;2022-11-20T15:18:48;18.20;;;16.20;;
9997;SDS011;5038;53.064;8.624;2022-11-20T15:21:17;17.57;;;15.87;;
9997;SDS011;5038;53.064;8.624;2022-11-20T15:23:47;16.70;;;15.10;;